createdAt,value
2018-03-15T00:00:58.061Z,16.80
2018-03-15T00:01:58.031Z,16.30
2018-03-15T00:02:58.004Z,15.60
2018-03-15T00:03:58.146Z,15.70
2018-03-15T00:04:58.000Z,16.60
2018-03-15T00:05:58.000Z,17.60
2018-03-15T00:06:58.007Z,15.30
2018-03-15T00:07:57.989Z,16.70
2018-03-15T00:08:57.985Z,16.60
2018-03-15T00:09:57.992Z,16.60
2018-03-15T00:10:57.993Z,15.60
2018-03-15T00:11:57.986Z,18.60
2018-03-15T00:12:57.994Z,18.20
2018-03-15T00:13:57.977Z,17.40
2018-03-15T00:14:57.979Z,19.00
2018-03-15T00:15:57.991Z,17.20
2018-03-15T00:16:58.044Z,16.30
2018-03-15T00:17:57.990Z,17.60
2018-03-15T00:18:58.011Z,16.10
2018-03-15T00:19:57.962Z,17.00
2018-03-15T00:20:57.961Z,17.60
2018-03-15T00:21:57.966Z,19.60
2018-03-15T00:22:57.953Z,18.10
2018-03-15T00:23:57.963Z,17.10
2018-03-15T00:24:57.957Z,16.10
2018-03-15T00:25:57.949Z,15.50
2018-03-15T00:26:58.003Z,18.20
2018-03-15T00:27:57.963Z,17.00
2018-03-15T00:28:57.981Z,17.40
2018-03-15T00:29:57.928Z,16.20
2018-03-15T00:30:58.001Z,18.40
2018-03-15T00:31:57.935Z,18.00
2018-03-15T00:32:57.947Z,17.50
2018-03-15T00:33:57.940Z,17.40
2018-03-15T00:34:57.957Z,17.00
2018-03-15T00:35:57.942Z,18.20
2018-03-15T00:36:57.929Z,18.40
2018-03-15T00:37:57.913Z,17.30
2018-03-15T00:38:57.928Z,17.30
2018-03-15T00:39:57.922Z,17.40
2018-03-15T00:40:57.907Z,17.20
2018-03-15T00:41:57.929Z,18.20
2018-03-15T00:42:57.902Z,18.00
2018-03-15T00:43:57.949Z,20.40
2018-03-15T00:44:57.911Z,18.60
2018-03-15T00:45:57.906Z,19.20
2018-03-15T00:46:57.899Z,20.00
2018-03-15T00:47:57.944Z,17.20
2018-03-15T00:48:57.912Z,17.70
2018-03-15T00:49:57.905Z,18.70
2018-03-15T00:50:57.894Z,20.30
2018-03-15T00:51:57.898Z,20.20
2018-03-15T00:52:57.886Z,19.10
2018-03-15T00:53:57.893Z,17.80
2018-03-15T00:54:57.877Z,18.20
2018-03-15T00:55:57.878Z,20.20
2018-03-15T00:56:57.885Z,20.00
2018-03-15T00:57:57.861Z,19.80
2018-03-15T00:58:57.878Z,18.10
2018-03-15T00:59:57.868Z,17.50
2018-03-15T01:00:57.935Z,20.00
2018-03-15T01:01:57.898Z,18.70
2018-03-15T01:02:57.916Z,19.70
2018-03-15T01:03:57.878Z,18.00
2018-03-15T01:04:57.851Z,18.80
2018-03-15T01:05:57.854Z,19.20
2018-03-15T01:06:57.841Z,17.90
2018-03-15T01:07:57.851Z,19.10
2018-03-15T01:08:57.843Z,17.90
2018-03-15T01:09:57.844Z,21.00
2018-03-15T01:10:57.837Z,19.90
2018-03-15T01:11:57.831Z,20.00
2018-03-15T01:12:57.841Z,18.30
2018-03-15T01:13:57.858Z,18.80
2018-03-15T01:14:57.836Z,17.80
2018-03-15T01:15:57.818Z,20.20
2018-03-15T01:16:57.846Z,19.00
2018-03-15T01:17:57.837Z,18.40
2018-03-15T01:18:57.840Z,21.10
2018-03-15T01:19:57.821Z,22.30
2018-03-15T01:20:57.811Z,19.30
2018-03-15T01:21:57.828Z,22.60
2018-03-15T01:22:57.841Z,19.00
2018-03-15T01:23:57.818Z,18.00
2018-03-15T01:24:57.805Z,21.60
2018-03-15T01:25:57.858Z,21.50
2018-03-15T01:26:57.794Z,20.40
2018-03-15T01:27:57.804Z,19.70
2018-03-15T01:28:57.833Z,20.20
2018-03-15T01:29:57.787Z,21.40
2018-03-15T01:30:57.799Z,21.40
2018-03-15T01:31:57.922Z,20.70
2018-03-15T01:32:57.790Z,20.00
2018-03-15T01:33:57.773Z,21.80
2018-03-15T01:34:57.791Z,20.10
2018-03-15T01:35:57.776Z,20.00
2018-03-15T01:36:57.774Z,18.70
2018-03-15T01:37:57.763Z,20.30
2018-03-15T01:38:57.762Z,19.50
2018-03-15T01:39:57.770Z,21.00
2018-03-15T01:40:57.793Z,18.80
2018-03-15T01:41:57.827Z,19.00
2018-03-15T01:42:57.787Z,21.00
2018-03-15T01:43:57.784Z,20.30
2018-03-15T01:44:58.625Z,19.40
2018-03-15T01:45:57.745Z,20.30
2018-03-15T01:46:57.750Z,20.90
2018-03-15T01:47:57.732Z,19.90
2018-03-15T01:48:57.764Z,19.90
2018-03-15T01:49:57.735Z,21.80
2018-03-15T01:50:57.742Z,19.40
2018-03-15T01:51:57.733Z,22.00
2018-03-15T01:52:57.741Z,19.00
2018-03-15T01:53:57.728Z,20.30
2018-03-15T01:54:57.841Z,19.10
2018-03-15T01:55:57.745Z,21.20
2018-03-15T01:56:57.731Z,19.00
2018-03-15T01:57:57.731Z,20.20
2018-03-15T01:58:57.727Z,20.20
2018-03-15T01:59:57.718Z,19.60
2018-03-15T02:00:57.724Z,19.50
2018-03-15T02:01:57.725Z,21.00
2018-03-15T02:02:57.708Z,19.80
2018-03-15T02:03:57.703Z,20.40
2018-03-15T02:04:57.692Z,21.20
2018-03-15T02:05:57.705Z,18.70
2018-03-15T02:06:57.723Z,19.80
2018-03-15T02:07:57.730Z,19.30
2018-03-15T02:08:57.689Z,17.80
2018-03-15T02:09:57.704Z,19.30
2018-03-15T02:10:57.707Z,19.00
2018-03-15T02:11:57.728Z,17.10
2018-03-15T02:12:57.679Z,19.20
2018-03-15T02:13:57.675Z,20.50
2018-03-15T02:14:57.671Z,17.20
2018-03-15T02:15:57.698Z,18.40
2018-03-15T02:16:57.675Z,18.90
2018-03-15T02:17:57.664Z,19.90
2018-03-15T02:18:57.661Z,17.60
2018-03-15T02:19:57.659Z,18.90
2018-03-15T02:20:58.126Z,17.50
2018-03-15T02:21:57.675Z,17.50
2018-03-15T02:22:57.647Z,18.90
2018-03-15T02:23:57.646Z,18.10
2018-03-15T02:24:57.666Z,19.30
2018-03-15T02:25:57.672Z,17.90
2018-03-15T02:26:57.654Z,18.00
2018-03-15T02:27:57.633Z,19.60
2018-03-15T02:28:57.655Z,17.30
2018-03-15T02:29:57.635Z,18.30
2018-03-15T02:30:57.632Z,18.30
2018-03-15T02:31:57.628Z,17.60
2018-03-15T02:32:57.630Z,18.60
2018-03-15T02:33:57.634Z,17.10
2018-03-15T02:34:57.616Z,17.60
2018-03-15T02:35:57.612Z,17.80
2018-03-15T02:36:57.606Z,16.70
2018-03-15T02:37:57.602Z,16.40
2018-03-15T02:38:57.613Z,18.40
2018-03-15T02:39:57.621Z,16.70
2018-03-15T02:40:57.611Z,19.20
2018-03-15T02:41:57.637Z,18.60
2018-03-15T02:42:57.625Z,17.30
2018-03-15T02:43:57.600Z,19.90
2018-03-15T02:44:57.595Z,18.70
2018-03-15T02:45:57.586Z,18.90
2018-03-15T02:46:57.584Z,17.70
2018-03-15T02:47:57.584Z,17.90
2018-03-15T02:48:58.141Z,18.60
2018-03-15T02:49:57.592Z,20.10
2018-03-15T02:50:57.573Z,19.20
2018-03-15T02:51:57.578Z,17.50
2018-03-15T02:52:57.601Z,17.90
2018-03-15T02:53:57.594Z,18.10
2018-03-15T02:54:57.588Z,22.00
2018-03-15T02:55:57.583Z,19.10
2018-03-15T02:56:57.600Z,16.50
2018-03-15T02:57:57.589Z,18.30
2018-03-15T02:58:57.560Z,18.30
2018-03-15T02:59:57.556Z,17.00
2018-03-15T03:00:57.584Z,18.10
2018-03-15T03:01:57.624Z,19.50
2018-03-15T03:02:57.560Z,18.10
2018-03-15T03:03:57.571Z,18.60
2018-03-15T03:04:57.607Z,16.10
2018-03-15T03:05:57.536Z,20.30
2018-03-15T03:06:57.549Z,20.00
2018-03-15T03:07:57.531Z,17.60
2018-03-15T03:08:57.573Z,19.60
2018-03-15T03:09:57.514Z,17.90
2018-03-15T03:10:57.547Z,19.10
2018-03-15T03:11:57.551Z,18.30
2018-03-15T03:12:57.530Z,19.20
2018-03-15T03:13:57.524Z,19.00
2018-03-15T03:14:57.592Z,19.50
2018-03-15T03:15:57.536Z,17.40
2018-03-15T03:16:57.504Z,18.70
2018-03-15T03:17:57.498Z,20.50
2018-03-15T03:18:57.498Z,17.60
2018-03-15T03:19:57.505Z,18.60
2018-03-15T03:20:57.505Z,21.20
2018-03-15T03:21:57.543Z,18.80
2018-03-15T03:22:57.498Z,18.60
2018-03-15T03:23:57.548Z,23.80
2018-03-15T03:24:57.498Z,21.50
2018-03-15T03:25:57.539Z,21.10
2018-03-15T03:26:57.476Z,19.50
2018-03-15T03:27:57.541Z,20.10
2018-03-15T03:28:57.467Z,18.80
2018-03-15T03:29:57.464Z,19.90
2018-03-15T03:30:57.475Z,22.90
2018-03-15T03:31:57.465Z,22.50
2018-03-15T03:32:57.468Z,19.70
2018-03-15T03:33:57.485Z,19.70
2018-03-15T03:34:57.464Z,20.50
2018-03-15T03:35:57.467Z,18.70
2018-03-15T03:36:57.485Z,18.70
2018-03-15T03:37:57.538Z,22.30
2018-03-15T03:38:57.457Z,21.00
2018-03-15T03:39:57.436Z,20.20
2018-03-15T03:40:57.448Z,20.70
2018-03-15T03:41:57.507Z,19.60
2018-03-15T03:42:57.430Z,22.50
2018-03-15T03:43:57.437Z,20.00
2018-03-15T03:44:57.437Z,20.20
2018-03-15T03:45:57.440Z,21.10
2018-03-15T03:46:57.462Z,20.40
2018-03-15T03:47:57.420Z,21.50
2018-03-15T03:48:57.421Z,21.40
2018-03-15T03:49:57.407Z,21.20
2018-03-15T03:50:57.417Z,20.10
2018-03-15T03:51:57.448Z,20.70
2018-03-15T03:52:57.414Z,20.40
2018-03-15T03:53:57.437Z,21.20
2018-03-15T03:54:57.396Z,22.30
2018-03-15T03:55:57.421Z,21.40
2018-03-15T03:56:57.409Z,19.40
2018-03-15T03:57:57.473Z,19.70
2018-03-15T03:58:57.417Z,22.20
2018-03-15T03:59:57.422Z,22.90
2018-03-15T04:00:57.384Z,22.10
2018-03-15T04:01:57.383Z,21.70
2018-03-15T04:02:57.371Z,21.10
2018-03-15T04:03:57.402Z,22.80
2018-03-15T04:04:57.386Z,22.80
2018-03-15T04:05:57.393Z,21.30
2018-03-15T04:06:57.381Z,22.10
2018-03-15T04:07:57.377Z,21.70
2018-03-15T04:08:57.429Z,22.40
2018-03-15T04:09:57.358Z,23.80
2018-03-15T04:10:57.354Z,21.50
2018-03-15T04:11:57.352Z,21.70
2018-03-15T04:12:57.362Z,26.70
2018-03-15T04:13:57.342Z,22.80
2018-03-15T04:14:57.399Z,24.40
2018-03-15T04:15:57.358Z,22.70
2018-03-15T04:16:57.345Z,23.40
2018-03-15T04:17:57.334Z,24.40
2018-03-15T04:18:57.373Z,21.80
2018-03-15T04:19:57.325Z,25.00
2018-03-15T04:20:57.319Z,23.10
2018-03-15T04:21:57.420Z,23.30
2018-03-15T04:22:57.331Z,22.80
2018-03-15T04:23:57.317Z,21.60
2018-03-15T04:24:57.341Z,22.60
2018-03-15T04:25:57.308Z,22.90
2018-03-15T04:26:57.304Z,21.40
2018-03-15T04:27:57.299Z,24.70
2018-03-15T04:28:57.304Z,24.70
2018-03-15T04:29:57.306Z,24.50
2018-03-15T04:30:57.299Z,23.50
2018-03-15T04:31:57.297Z,24.90
2018-03-15T04:32:57.290Z,26.60
2018-03-15T04:33:57.306Z,26.60
2018-03-15T04:34:57.290Z,23.80
2018-03-15T04:35:57.292Z,25.60
2018-03-15T04:36:57.288Z,24.00
2018-03-15T04:37:57.295Z,24.70
2018-03-15T04:38:57.269Z,24.50
2018-03-15T04:39:57.261Z,23.00
2018-03-15T04:40:57.259Z,25.50
2018-03-15T04:41:57.275Z,25.30
2018-03-15T04:42:57.265Z,25.00
2018-03-15T04:43:57.277Z,27.10
2018-03-15T04:44:58.150Z,25.70
2018-03-15T04:45:57.283Z,26.70
2018-03-15T04:46:57.258Z,25.00
2018-03-15T04:47:57.304Z,25.20
2018-03-15T04:48:57.296Z,26.90
2018-03-15T04:49:57.253Z,27.20
2018-03-15T04:50:57.237Z,25.50
2018-03-15T04:51:57.267Z,25.60
2018-03-15T04:52:57.289Z,25.10
2018-03-15T04:53:57.265Z,25.60
2018-03-15T04:54:57.235Z,25.80
2018-03-15T04:55:57.233Z,25.30
2018-03-15T04:56:57.219Z,28.20
2018-03-15T04:57:57.236Z,25.90
2018-03-15T04:58:57.218Z,27.90
2018-03-15T04:59:57.218Z,26.60
2018-03-15T05:00:57.201Z,28.20
2018-03-15T05:01:57.201Z,27.30
2018-03-15T05:02:57.209Z,26.80
2018-03-15T05:03:57.209Z,27.00
2018-03-15T05:04:57.193Z,26.30
2018-03-15T05:05:57.209Z,26.00
2018-03-15T05:06:57.189Z,25.50
2018-03-15T05:07:57.204Z,28.90
2018-03-15T05:08:57.196Z,26.90
2018-03-15T05:09:57.190Z,24.20
2018-03-15T05:10:57.221Z,27.60
2018-03-15T05:11:57.169Z,27.30
2018-03-15T05:12:57.217Z,28.40
2018-03-15T05:13:57.200Z,28.00
2018-03-15T05:14:57.167Z,28.20
2018-03-15T05:15:57.166Z,27.40
2018-03-15T05:16:57.162Z,28.70
2018-03-15T05:17:57.169Z,28.50
2018-03-15T05:18:57.215Z,27.60
2018-03-15T05:19:57.160Z,25.90
2018-03-15T05:20:57.164Z,28.80
2018-03-15T05:21:57.160Z,26.70
2018-03-15T05:22:57.150Z,26.70
2018-03-15T05:23:57.264Z,28.30
2018-03-15T05:24:57.180Z,30.20
2018-03-15T05:25:57.135Z,28.20
2018-03-15T05:26:57.125Z,28.30
2018-03-15T05:27:57.146Z,28.50
2018-03-15T05:28:57.122Z,28.00
2018-03-15T05:29:57.114Z,29.20
2018-03-15T05:30:57.132Z,27.10
2018-03-15T05:31:57.659Z,27.60
2018-03-15T05:32:57.150Z,30.70
2018-03-15T05:33:57.118Z,30.60
2018-03-15T05:34:57.119Z,31.00
2018-03-15T05:35:57.115Z,27.40
2018-03-15T05:36:57.106Z,29.40
2018-03-15T05:37:57.111Z,28.60
2018-03-15T05:38:57.090Z,31.80
2018-03-15T05:39:57.106Z,31.90
2018-03-15T05:40:57.116Z,31.80
2018-03-15T05:41:57.093Z,29.70
2018-03-15T05:42:57.083Z,29.60
2018-03-15T05:43:57.071Z,30.50
2018-03-15T05:44:57.122Z,30.80
2018-03-15T05:45:57.109Z,30.70
2018-03-15T05:46:57.064Z,33.10
2018-03-15T05:47:57.065Z,32.90
2018-03-15T05:48:57.081Z,28.50
2018-03-15T05:49:57.661Z,29.80
2018-03-15T05:50:57.083Z,30.00
2018-03-15T05:51:57.067Z,29.80
2018-03-15T05:52:57.055Z,29.40
2018-03-15T05:53:57.143Z,32.60
2018-03-15T05:54:57.105Z,31.40
2018-03-15T05:55:57.144Z,30.30
2018-03-15T05:56:57.095Z,31.20
2018-03-15T05:57:57.099Z,30.10
2018-03-15T05:58:57.103Z,30.60
2018-03-15T05:59:57.035Z,32.90
2018-03-15T06:00:57.118Z,28.20
2018-03-15T06:01:57.035Z,30.30
2018-03-15T06:02:57.183Z,29.90
2018-03-15T06:03:57.112Z,30.90
2018-03-15T06:04:57.086Z,31.20
2018-03-15T06:05:57.074Z,32.20
2018-03-15T06:06:57.032Z,31.80
2018-03-15T06:07:57.035Z,31.00
2018-03-15T06:08:57.054Z,30.80
2018-03-15T06:09:57.048Z,32.90
2018-03-15T06:10:57.004Z,30.60
2018-03-15T06:11:57.246Z,29.40
2018-03-15T06:12:57.229Z,34.20
2018-03-15T06:13:57.057Z,32.30
2018-03-15T06:14:57.029Z,33.30
2018-03-15T06:15:57.113Z,32.70
2018-03-15T06:16:57.029Z,32.90
2018-03-15T06:17:57.024Z,34.20
2018-03-15T06:18:57.068Z,28.20
2018-03-15T06:19:56.991Z,33.40
2018-03-15T06:20:56.971Z,30.20
2018-03-15T06:21:57.131Z,31.50
2018-03-15T06:22:57.206Z,34.70
2018-03-15T06:23:57.059Z,29.30
2018-03-15T06:24:57.109Z,34.60
2018-03-15T06:25:56.954Z,35.50
2018-03-15T06:26:57.014Z,34.30
2018-03-15T06:27:57.948Z,32.30
2018-03-15T06:28:57.122Z,31.40
2018-03-15T06:29:57.042Z,31.80
2018-03-15T06:30:57.184Z,31.20
2018-03-15T06:31:58.189Z,30.90
2018-03-15T06:32:57.183Z,33.40
2018-03-15T06:33:56.967Z,30.60
2018-03-15T06:34:57.011Z,31.90
2018-03-15T06:35:57.238Z,31.90
2018-03-15T06:36:57.250Z,32.10
2018-03-15T06:37:57.998Z,32.30
2018-03-15T06:38:58.714Z,30.60
2018-03-15T06:40:04.565Z,31.90
2018-03-15T06:40:57.230Z,32.60
2018-03-15T06:41:57.649Z,31.50
2018-03-15T06:42:57.228Z,31.70
2018-03-15T06:43:57.072Z,33.20
2018-03-15T06:44:57.212Z,32.30
2018-03-15T06:46:04.901Z,29.70
2018-03-15T06:46:56.997Z,33.70
2018-03-15T06:47:57.047Z,31.40
2018-03-15T06:48:56.936Z,30.20
2018-03-15T06:49:56.945Z,31.20
2018-03-15T06:50:56.910Z,30.30
2018-03-15T06:51:56.884Z,31.70
2018-03-15T06:52:56.889Z,31.20
2018-03-15T06:53:56.889Z,31.90
2018-03-15T06:54:57.148Z,29.10
2018-03-15T06:55:57.425Z,31.70
2018-03-15T06:56:57.439Z,31.30
2018-03-15T06:58:11.620Z,31.80
2018-03-15T06:58:58.346Z,30.30
2018-03-15T06:59:58.387Z,28.50
2018-03-15T07:01:57.390Z,30.60
2018-03-15T07:02:57.811Z,31.50
2018-03-15T07:03:57.187Z,31.60
2018-03-15T07:04:57.125Z,32.90
2018-03-15T07:05:56.920Z,30.90
2018-03-15T07:06:56.997Z,30.10
2018-03-15T07:07:56.876Z,31.60
2018-03-15T07:08:56.960Z,29.10
2018-03-15T07:09:56.911Z,29.00
2018-03-15T07:10:56.940Z,27.20
2018-03-15T07:11:56.880Z,31.50
2018-03-15T07:12:56.957Z,27.90
2018-03-15T07:13:56.963Z,28.50
2018-03-15T07:14:56.837Z,30.30
2018-03-15T07:15:56.898Z,30.70
2018-03-15T07:16:56.968Z,31.70
2018-03-15T07:17:56.947Z,32.50
2018-03-15T07:18:56.931Z,29.10
2018-03-15T07:19:56.998Z,30.40
2018-03-15T07:20:56.979Z,28.80
2018-03-15T07:21:57.109Z,26.10
2018-03-15T07:22:57.456Z,27.00
2018-03-15T07:23:57.036Z,28.00
2018-03-15T07:24:56.902Z,28.20
2018-03-15T07:25:56.995Z,29.50
2018-03-15T07:26:56.809Z,27.80
2018-03-15T07:27:56.972Z,26.50
2018-03-15T07:28:56.888Z,24.50
2018-03-15T07:29:56.855Z,26.20
2018-03-15T07:30:56.973Z,28.10
2018-03-15T07:31:56.908Z,26.50
2018-03-15T07:32:56.844Z,25.60
2018-03-15T07:33:56.936Z,25.50
2018-03-15T07:34:56.870Z,25.90
2018-03-15T07:35:57.043Z,26.80
2018-03-15T07:36:56.884Z,24.50
2018-03-15T07:37:56.909Z,25.70
2018-03-15T07:38:57.023Z,25.70
2018-03-15T07:39:57.213Z,24.90
2018-03-15T07:40:57.898Z,24.60
2018-03-15T07:41:57.353Z,25.20
2018-03-15T07:42:56.979Z,24.40
2018-03-15T07:43:56.889Z,25.90
2018-03-15T07:44:56.869Z,24.70
2018-03-15T07:45:56.978Z,26.00
2018-03-15T07:46:56.846Z,23.60
2018-03-15T07:47:56.995Z,24.10
2018-03-15T07:48:56.926Z,23.80
2018-03-15T07:49:56.887Z,23.30
2018-03-15T07:50:57.931Z,23.60
2018-03-15T07:51:57.060Z,22.90
2018-03-15T07:52:56.917Z,25.30
2018-03-15T07:53:56.972Z,25.00
2018-03-15T07:54:56.882Z,24.40
2018-03-15T07:55:56.902Z,24.80
2018-03-15T07:56:57.124Z,24.50
2018-03-15T07:57:56.903Z,24.20
2018-03-15T07:58:58.452Z,22.80
2018-03-15T07:59:58.291Z,26.50
2018-03-15T08:00:58.688Z,26.30
2018-03-15T08:01:57.117Z,24.80
2018-03-15T08:02:56.946Z,22.10
2018-03-15T08:03:56.990Z,23.60
2018-03-15T08:04:56.961Z,23.30
2018-03-15T08:05:57.128Z,24.70
2018-03-15T08:06:59.826Z,24.00
2018-03-15T08:07:57.044Z,23.60
2018-03-15T08:08:56.911Z,22.60
2018-03-15T08:09:57.061Z,23.80
2018-03-15T08:10:57.110Z,23.80
2018-03-15T08:11:58.240Z,23.60
2018-03-15T08:12:58.019Z,21.60
2018-03-15T08:13:57.020Z,22.40
2018-03-15T08:14:57.104Z,24.10
2018-03-15T08:15:57.081Z,22.30
2018-03-15T08:16:57.684Z,21.90
2018-03-15T08:19:00.320Z,23.00
2018-03-15T08:19:57.607Z,22.60
2018-03-15T08:20:57.981Z,22.00
2018-03-15T08:22:57.213Z,21.80
2018-03-15T08:24:03.968Z,22.30
2018-03-15T08:24:57.472Z,22.40
2018-03-15T08:29:21.765Z,20.80
2018-03-15T08:30:59.887Z,23.10
2018-03-15T08:31:58.660Z,20.90
2018-03-15T08:32:57.955Z,21.50
2018-03-15T08:33:57.890Z,20.40
2018-03-15T08:34:57.162Z,22.30
2018-03-15T08:35:57.056Z,22.80
2018-03-15T08:36:57.182Z,21.90
2018-03-15T08:37:58.390Z,22.30
2018-03-15T08:38:57.332Z,22.20
2018-03-15T08:39:57.305Z,20.50
2018-03-15T08:40:57.171Z,23.90
2018-03-15T08:41:57.008Z,22.10
2018-03-15T08:42:57.043Z,27.70
2018-03-15T08:43:57.081Z,23.60
2018-03-15T08:44:57.901Z,20.70
2018-03-15T08:45:57.147Z,22.40
2018-03-15T08:46:57.154Z,21.50
2018-03-15T08:47:57.205Z,22.80
2018-03-15T08:48:57.507Z,21.80
2018-03-15T08:49:57.129Z,21.70
2018-03-15T08:50:57.595Z,23.20
2018-03-15T08:51:57.231Z,22.80
2018-03-15T08:52:57.237Z,22.30
2018-03-15T08:53:57.180Z,22.80
2018-03-15T08:54:57.342Z,23.60
2018-03-15T08:55:57.121Z,22.60
2018-03-15T08:56:57.245Z,23.70
2018-03-15T08:57:57.096Z,21.90
2018-03-15T08:58:57.356Z,22.00
2018-03-15T08:59:57.399Z,22.60
2018-03-15T09:00:57.208Z,23.50
2018-03-15T09:01:57.430Z,21.00
2018-03-15T09:02:57.903Z,21.90
2018-03-15T09:03:59.913Z,22.90
2018-03-15T09:04:59.082Z,22.70
2018-03-15T09:05:57.645Z,21.20
2018-03-15T09:06:57.261Z,21.20
2018-03-15T09:07:57.362Z,21.60
2018-03-15T09:08:57.335Z,22.50
2018-03-15T09:09:57.210Z,22.30
2018-03-15T09:10:57.272Z,23.20
2018-03-15T09:11:58.140Z,22.50
2018-03-15T09:12:57.224Z,23.30
2018-03-15T09:13:57.378Z,22.30
2018-03-15T09:14:57.450Z,21.60
2018-03-15T09:15:57.299Z,21.90
2018-03-15T09:16:57.375Z,22.30
2018-03-15T09:17:57.316Z,22.00
2018-03-15T09:18:57.249Z,23.90
2018-03-15T09:19:57.529Z,23.70
2018-03-15T09:20:57.273Z,22.00
2018-03-15T09:21:57.262Z,22.40
2018-03-15T09:22:57.234Z,22.90
2018-03-15T09:23:57.316Z,22.90
2018-03-15T09:24:57.289Z,23.40
2018-03-15T09:25:57.386Z,22.10
2018-03-15T09:26:57.503Z,23.90
2018-03-15T09:27:58.201Z,22.00
2018-03-15T09:28:58.308Z,22.70
2018-03-15T09:29:57.331Z,22.60
2018-03-15T09:30:58.137Z,24.00
2018-03-15T09:31:57.533Z,22.20
2018-03-15T09:32:57.822Z,22.80
2018-03-15T09:33:58.861Z,22.30
2018-03-15T09:34:57.737Z,22.70
2018-03-15T09:35:58.174Z,22.20
2018-03-15T09:36:58.157Z,24.50
2018-03-15T09:37:57.437Z,23.40
2018-03-15T09:38:59.770Z,23.10
2018-03-15T09:39:58.427Z,22.90
2018-03-15T09:40:57.575Z,21.70
2018-03-15T09:41:57.749Z,23.30
2018-03-15T09:42:57.926Z,24.80
2018-03-15T09:43:57.924Z,23.20
2018-03-15T09:44:57.608Z,23.30
2018-03-15T09:45:57.615Z,22.40
2018-03-15T09:46:59.988Z,24.50
2018-03-15T09:48:16.619Z,21.30
2018-03-15T09:50:30.912Z,22.50
2018-03-15T09:51:30.906Z,23.80
2018-03-15T09:52:30.960Z,24.40
2018-03-15T09:53:31.033Z,23.80
2018-03-15T09:54:31.294Z,22.70
2018-03-15T09:55:30.910Z,23.50
2018-03-15T09:56:31.418Z,22.20
2018-03-15T09:57:30.947Z,22.20
2018-03-15T09:58:31.017Z,23.00
2018-03-15T09:59:31.062Z,23.10
2018-03-15T10:00:30.993Z,22.70
2018-03-15T10:01:31.008Z,23.70
2018-03-15T10:02:30.972Z,23.40
2018-03-15T10:03:31.025Z,21.90
2018-03-15T10:04:31.043Z,22.00
2018-03-15T10:05:30.994Z,22.80
2018-03-15T10:06:31.002Z,23.50
2018-03-15T10:07:31.005Z,23.80
2018-03-15T10:08:31.964Z,22.20
2018-03-15T10:09:31.024Z,22.90
2018-03-15T10:10:31.068Z,23.30
2018-03-15T10:11:31.057Z,22.70
2018-03-15T10:12:31.061Z,23.10
2018-03-15T10:13:31.103Z,22.40
2018-03-15T10:14:31.092Z,21.70
2018-03-15T10:15:31.065Z,21.50
2018-03-15T10:16:31.101Z,23.10
2018-03-15T10:17:31.121Z,22.70
2018-03-15T10:18:31.235Z,23.60
2018-03-15T10:19:31.104Z,24.10
2018-03-15T10:20:31.142Z,22.40
2018-03-15T10:21:31.131Z,22.80
2018-03-15T10:22:31.138Z,21.50
2018-03-15T10:23:31.127Z,22.60
2018-03-15T10:24:31.145Z,23.20
2018-03-15T10:25:31.209Z,23.60
2018-03-15T10:26:31.143Z,23.30
2018-03-15T10:27:31.239Z,21.50
2018-03-15T10:28:31.156Z,22.50
2018-03-15T10:29:31.210Z,21.80
2018-03-15T10:30:31.174Z,23.40
2018-03-15T10:31:31.377Z,22.10
2018-03-15T10:32:31.235Z,22.80
2018-03-15T10:33:31.248Z,23.60
2018-03-15T10:34:31.204Z,23.00
2018-03-15T10:35:31.233Z,22.40
2018-03-15T10:36:31.321Z,21.70
2018-03-15T10:37:31.253Z,23.70
2018-03-15T10:38:31.274Z,23.60
2018-03-15T10:39:31.274Z,24.30
2018-03-15T10:40:31.248Z,21.80
2018-03-15T10:41:31.292Z,22.40
2018-03-15T10:42:31.299Z,22.80
2018-03-15T10:43:31.373Z,22.00
2018-03-15T10:44:31.289Z,19.90
2018-03-15T10:45:31.294Z,22.70
2018-03-15T10:46:31.547Z,22.60
2018-03-15T10:47:31.316Z,22.50
2018-03-15T10:48:31.319Z,20.40
2018-03-15T10:49:31.444Z,20.50
2018-03-15T10:50:31.367Z,22.30
2018-03-15T10:51:31.348Z,21.90
2018-03-15T10:52:31.360Z,20.40
2018-03-15T10:53:31.404Z,21.90
2018-03-15T10:54:31.371Z,22.30
2018-03-15T10:55:31.377Z,22.20
2018-03-15T10:56:31.394Z,21.80
2018-03-15T10:57:31.398Z,21.50
2018-03-15T10:58:31.416Z,22.00
2018-03-15T10:59:31.995Z,21.00
2018-03-15T11:00:31.421Z,22.00
2018-03-15T11:01:31.474Z,23.20
2018-03-15T11:02:31.481Z,20.80
2018-03-15T11:03:31.463Z,21.90
2018-03-15T11:04:31.494Z,20.70
2018-03-15T11:05:31.471Z,21.70
2018-03-15T11:06:32.495Z,21.00
2018-03-15T11:07:31.506Z,20.90
2018-03-15T11:08:32.021Z,21.70
2018-03-15T11:09:31.607Z,19.50
2018-03-15T11:10:31.502Z,21.40
2018-03-15T11:11:31.511Z,21.00
2018-03-15T11:12:31.554Z,20.80
2018-03-15T11:13:31.595Z,20.70
2018-03-15T11:14:31.537Z,21.10
2018-03-15T11:15:31.544Z,20.30
2018-03-15T11:16:31.579Z,21.30
2018-03-15T11:17:31.582Z,20.80
2018-03-15T11:18:31.594Z,20.50
2018-03-15T11:19:31.700Z,21.80
2018-03-15T11:20:31.586Z,21.20
2018-03-15T11:21:31.628Z,20.50
2018-03-15T11:22:31.622Z,21.10
2018-03-15T11:23:31.631Z,20.00
2018-03-15T11:24:31.669Z,20.90
2018-03-15T11:25:31.672Z,21.40
2018-03-15T11:26:31.635Z,21.20
2018-03-15T11:27:31.650Z,20.30
2018-03-15T11:28:31.673Z,21.40
2018-03-15T11:29:31.650Z,20.00
2018-03-15T11:30:31.655Z,20.70
2018-03-15T11:31:31.694Z,20.50
2018-03-15T11:32:31.685Z,21.20
2018-03-15T11:33:31.721Z,19.90
2018-03-15T11:34:31.704Z,20.20
2018-03-15T11:35:31.756Z,22.50
2018-03-15T11:36:31.697Z,20.70
2018-03-15T11:37:31.775Z,20.20
2018-03-15T11:38:31.757Z,20.80
2018-03-15T11:39:31.730Z,21.40
2018-03-15T11:40:31.746Z,19.00
2018-03-15T11:41:31.723Z,19.00
2018-03-15T11:42:31.756Z,19.20
2018-03-15T11:43:31.762Z,20.00
2018-03-15T11:44:31.800Z,20.30
2018-03-15T11:45:31.769Z,20.00
2018-03-15T11:46:31.762Z,20.90
2018-03-15T11:47:31.755Z,20.10
2018-03-15T11:48:31.797Z,19.60
2018-03-15T11:49:31.791Z,19.60
2018-03-15T11:50:31.794Z,21.20
2018-03-15T11:51:31.822Z,21.00
2018-03-15T11:52:31.842Z,19.70
2018-03-15T11:53:31.798Z,20.50
2018-03-15T11:54:31.801Z,21.60
2018-03-15T11:55:31.850Z,20.00
2018-03-15T11:56:31.831Z,20.80
2018-03-15T11:57:31.809Z,20.20
2018-03-15T11:58:31.852Z,20.80
2018-03-15T11:59:31.860Z,20.60
2018-03-15T12:00:31.844Z,18.50
2018-03-15T12:01:31.862Z,20.60
2018-03-15T12:02:31.881Z,21.10
2018-03-15T12:03:31.904Z,19.70
2018-03-15T12:04:31.835Z,20.60
2018-03-15T12:05:31.838Z,20.10
2018-03-15T12:06:31.882Z,21.60
2018-03-15T12:07:31.843Z,20.10
2018-03-15T12:08:31.858Z,20.60
2018-03-15T12:09:31.859Z,19.70
2018-03-15T12:10:31.861Z,19.60
2018-03-15T12:11:31.887Z,20.20
2018-03-15T12:12:31.857Z,20.50
2018-03-15T12:13:31.871Z,18.70
2018-03-15T12:14:31.858Z,20.80
2018-03-15T12:15:31.863Z,21.10
2018-03-15T12:16:31.877Z,20.60
2018-03-15T12:17:31.874Z,19.80
2018-03-15T12:18:31.999Z,21.20
2018-03-15T12:19:31.884Z,21.50
2018-03-15T12:20:31.887Z,18.70
2018-03-15T12:21:31.898Z,18.30
2018-03-15T12:22:31.919Z,19.30
2018-03-15T12:23:31.903Z,18.70
2018-03-15T12:24:31.898Z,21.00
2018-03-15T12:25:31.886Z,19.60
2018-03-15T12:26:31.948Z,16.60
2018-03-15T12:27:31.898Z,19.70
2018-03-15T12:28:31.920Z,18.50
2018-03-15T12:29:31.958Z,18.30
2018-03-15T12:30:31.912Z,18.00
2018-03-15T12:31:31.964Z,17.70
2018-03-15T12:32:31.915Z,19.10
2018-03-15T12:33:31.920Z,17.80
2018-03-15T12:34:32.538Z,18.30
2018-03-15T12:35:31.913Z,19.90
2018-03-15T12:36:32.531Z,19.30
2018-03-15T12:37:31.956Z,20.80
2018-03-15T12:38:31.925Z,20.20
2018-03-15T12:39:31.932Z,19.10
2018-03-15T12:40:31.978Z,19.30
2018-03-15T12:41:31.949Z,20.20
2018-03-15T12:42:31.983Z,19.50
2018-03-15T12:43:31.986Z,20.10
2018-03-15T12:44:31.942Z,20.20
2018-03-15T12:45:31.944Z,18.80
2018-03-15T12:46:31.987Z,18.60
2018-03-15T12:47:32.065Z,19.30
2018-03-15T12:48:31.991Z,17.80
2018-03-15T12:49:31.976Z,19.10
2018-03-15T12:50:31.963Z,20.50
2018-03-15T12:51:31.974Z,19.00
2018-03-15T12:52:31.998Z,20.10
2018-03-15T12:53:31.971Z,18.00
2018-03-15T12:54:32.000Z,20.60
2018-03-15T12:55:32.539Z,20.00
2018-03-15T12:56:31.967Z,20.40
2018-03-15T12:57:32.029Z,19.70
2018-03-15T12:58:31.966Z,19.00
2018-03-15T12:59:31.984Z,17.90
2018-03-15T13:00:32.030Z,20.60
2018-03-15T13:01:31.976Z,19.90